sensor_id;sensor_type;location;lat;lon;timestamp;temperature;humidity
54788;DHT22;59598;48.112;16.280;2022-07-23T00:02:16;24.60;99.90
54788;DHT22;59598;48.112;16.280;2022-07-23T00:04:49;24.60;99.90
54788;DHT22;59598;48.112;16.280;2022-07-23T00:07:22;24.60;99.90
54788;DHT22;59598;48.112;16.280;2022-07-23T00:09:53;24.60;99.90
54788;DHT22;59598;48.112;16.280;2022-07-23T00:12:24;24.50;99.90
54788;DHT22;59598;48.112;16.280;2022-07-23T00:14:57;24.50;99.90
54788;DHT22;59598;48.112;16.280;2022-07-23T00:17:36;24.50;99.90
54788;DHT22;59598;48.112;16.280;2022-07-23T00:20:08;24.50;99.90
54788;DHT22;59598;48.112;16.280;2022-07-23T00:22:52;24.40;99.90
54788;DHT22;59598;48.112;16.280;2022-07-23T00:25:24;24.40;99.90
54788;DHT22;59598;48.112;16.280;2022-07-23T00:28:02;24.40;99.90
54788;DHT22;59598;48.112;16.280;2022-07-23T00:30:33;24.50;99.90
54788;DHT22;59598;48.112;16.280;2022-07-23T00:33:07;24.40;99.90
54788;DHT22;59598;48.112;16.280;2022-07-23T00:35:42;24.40;99.90
54788;DHT22;59598;48.112;16.280;2022-07-23T00:38:17;24.40;99.90
54788;DHT22;59598;48.112;16.280;2022-07-23T00:40:48;24.40;99.90
54788;DHT22;59598;48.112;16.280;2022-07-23T00:43:25;24.30;99.90
54788;DHT22;59598;48.112;16.280;2022-07-23T00:45:59;24.30;99.90
54788;DHT22;59598;48.112;16.280;2022-07-23T00:48:31;24.20;99.90
54788;DHT22;59598;48.112;16.280;2022-07-23T00:51:05;24.20;99.90
54788;DHT22;59598;48.112;16.280;2022-07-23T00:53:36;24.20;99.90
54788;DHT22;59598;48.112;16.280;2022-07-23T00:56:13;24.20;99.90
54788;DHT22;59598;48.112;16.280;2022-07-23T00:58:44;24.10;99.90
54788;DHT22;59598;48.112;16.280;2022-07-23T01:01:16;24.00;99.90
54788;DHT22;59598;48.112;16.280;2022-07-23T01:03:48;23.90;99.90
54788;DHT22;59598;48.112;16.280;2022-07-23T01:06:19;23.90;99.90
54788;DHT22;59598;48.112;16.280;2022-07-23T01:09:02;23.80;99.90
54788;DHT22;59598;48.112;16.280;2022-07-23T01:11:39;23.80;99.90
54788;DHT22;59598;48.112;16.280;2022-07-23T01:14:15;23.80;99.90
54788;DHT22;59598;48.112;16.280;2022-07-23T01:16:49;23.80;99.90
54788;DHT22;59598;48.112;16.280;2022-07-23T01:19:23;23.80;99.90
54788;DHT22;59598;48.112;16.280;2022-07-23T01:21:58;23.90;99.90
54788;DHT22;59598;48.112;16.280;2022-07-23T01:24:32;23.90;99.90
54788;DHT22;59598;48.112;16.280;2022-07-23T01:27:03;23.90;99.90
54788;DHT22;59598;48.112;16.280;2022-07-23T01:29:36;23.90;99.90
54788;DHT22;59598;48.112;16.280;2022-07-23T01:32:07;24.00;99.90
54788;DHT22;59598;48.112;16.280;2022-07-23T01:34:38;24.10;99.90
54788;DHT22;59598;48.112;16.280;2022-07-23T01:37:14;24.10;99.90
54788;DHT22;59598;48.112;16.280;2022-07-23T01:39:50;24.30;99.90
54788;DHT22;59598;48.112;16.280;2022-07-23T01:42:24;24.90;99.90
54788;DHT22;59598;48.112;16.280;2022-07-23T01:44:56;25.20;99.90
54788;DHT22;59598;48.112;16.280;2022-07-23T01:47:27;25.40;99.90
54788;DHT22;59598;48.112;16.280;2022-07-23T01:50:01;25.60;99.90
54788;DHT22;59598;48.112;16.280;2022-07-23T01:52:34;25.60;99.90
54788;DHT22;59598;48.112;16.280;2022-07-23T01:55:08;25.70;99.90
54788;DHT22;59598;48.112;16.280;2022-07-23T01:57:47;25.80;99.90
54788;DHT22;59598;48.112;16.280;2022-07-23T02:00:18;25.90;99.90
54788;DHT22;59598;48.112;16.280;2022-07-23T02:02:59;26.00;99.90
54788;DHT22;59598;48.112;16.280;2022-07-23T02:05:31;26.10;99.90
54788;DHT22;59598;48.112;16.280;2022-07-23T02:08:05;26.00;99.90
54788;DHT22;59598;48.112;16.280;2022-07-23T02:10:39;26.10;99.90
54788;DHT22;59598;48.112;16.280;2022-07-23T02:13:10;26.10;99.90
54788;DHT22;59598;48.112;16.280;2022-07-23T02:15:46;26.10;99.90
54788;DHT22;59598;48.112;16.280;2022-07-23T02:18:21;26.30;99.90
54788;DHT22;59598;48.112;16.280;2022-07-23T02:20:52;26.30;99.90
54788;DHT22;59598;48.112;16.280;2022-07-23T02:23:23;26.30;99.90
54788;DHT22;59598;48.112;16.280;2022-07-23T02:25:54;26.30;99.90
54788;DHT22;59598;48.112;16.280;2022-07-23T02:28:25;26.40;99.90
54788;DHT22;59598;48.112;16.280;2022-07-23T02:30:57;26.30;99.90
54788;DHT22;59598;48.112;16.280;2022-07-23T02:33:28;26.30;99.90
54788;DHT22;59598;48.112;16.280;2022-07-23T02:36:02;26.20;99.90
54788;DHT22;59598;48.112;16.280;2022-07-23T02:38:33;26.20;99.90
54788;DHT22;59598;48.112;16.280;2022-07-23T02:41:12;26.10;99.90
54788;DHT22;59598;48.112;16.280;2022-07-23T02:43:46;26.00;99.90
54788;DHT22;59598;48.112;16.280;2022-07-23T02:46:21;25.90;99.90
54788;DHT22;59598;48.112;16.280;2022-07-23T02:48:52;25.80;99.90
54788;DHT22;59598;48.112;16.280;2022-07-23T02:51:24;25.60;99.90
54788;DHT22;59598;48.112;16.280;2022-07-23T02:53:55;25.40;99.90
54788;DHT22;59598;48.112;16.280;2022-07-23T02:56:26;25.30;99.90
54788;DHT22;59598;48.112;16.280;2022-07-23T02:58:57;25.30;99.90
54788;DHT22;59598;48.112;16.280;2022-07-23T03:01:29;25.20;99.90
54788;DHT22;59598;48.112;16.280;2022-07-23T03:04:00;25.10;99.90
54788;DHT22;59598;48.112;16.280;2022-07-23T03:06:34;25.10;99.90
54788;DHT22;59598;48.112;16.280;2022-07-23T03:09:08;25.10;99.90
54788;DHT22;59598;48.112;16.280;2022-07-23T03:11:40;25.00;99.90
54788;DHT22;59598;48.112;16.280;2022-07-23T03:14:14;25.00;99.90
54788;DHT22;59598;48.112;16.280;2022-07-23T03:16:48;24.90;99.90
54788;DHT22;59598;48.112;16.280;2022-07-23T03:19:20;24.80;99.90
54788;DHT22;59598;48.112;16.280;2022-07-23T03:21:58;24.80;99.90
54788;DHT22;59598;48.112;16.280;2022-07-23T03:24:31;24.80;99.90
54788;DHT22;59598;48.112;16.280;2022-07-23T03:27:29;24.80;99.90
54788;DHT22;59598;48.112;16.280;2022-07-23T03:30:03;24.70;99.90
54788;DHT22;59598;48.112;16.280;2022-07-23T03:32:40;24.70;99.90
54788;DHT22;59598;48.112;16.280;2022-07-23T03:35:12;24.60;99.90
54788;DHT22;59598;48.112;16.280;2022-07-23T03:37:46;24.60;99.90
54788;DHT22;59598;48.112;16.280;2022-07-23T03:40:18;24.40;99.90
54788;DHT22;59598;48.112;16.280;2022-07-23T03:42:54;24.40;99.90
54788;DHT22;59598;48.112;16.280;2022-07-23T03:45:28;24.40;99.90
54788;DHT22;59598;48.112;16.280;2022-07-23T03:48:01;24.30;99.90
54788;DHT22;59598;48.112;16.280;2022-07-23T03:50:35;24.30;99.90
54788;DHT22;59598;48.112;16.280;2022-07-23T03:53:13;24.30;99.90
54788;DHT22;59598;48.112;16.280;2022-07-23T03:55:44;24.20;99.90
54788;DHT22;59598;48.112;16.280;2022-07-23T03:58:15;24.10;99.90
54788;DHT22;59598;48.112;16.280;2022-07-23T04:00:52;24.10;99.90
54788;DHT22;59598;48.112;16.280;2022-07-23T04:03:25;24.20;99.90
54788;DHT22;59598;48.112;16.280;2022-07-23T04:05:56;24.30;99.90
54788;DHT22;59598;48.112;16.280;2022-07-23T04:08:30;24.30;99.90
54788;DHT22;59598;48.112;16.280;2022-07-23T04:11:04;24.30;99.90
54788;DHT22;59598;48.112;16.280;2022-07-23T04:13:40;24.40;99.90
54788;DHT22;59598;48.112;16.280;2022-07-23T04:16:12;24.50;99.90
54788;DHT22;59598;48.112;16.280;2022-07-23T04:18:45;24.60;99.90
54788;DHT22;59598;48.112;16.280;2022-07-23T04:21:16;24.60;99.90
54788;DHT22;59598;48.112;16.280;2022-07-23T04:23:54;24.70;99.90
54788;DHT22;59598;48.112;16.280;2022-07-23T04:26:25;24.80;99.90
54788;DHT22;59598;48.112;16.280;2022-07-23T04:29:00;24.80;99.90
54788;DHT22;59598;48.112;16.280;2022-07-23T04:31:33;24.90;99.90
54788;DHT22;59598;48.112;16.280;2022-07-23T04:34:05;25.10;99.90
54788;DHT22;59598;48.112;16.280;2022-07-23T04:36:36;25.20;99.90
54788;DHT22;59598;48.112;16.280;2022-07-23T04:39:08;25.20;99.90
54788;DHT22;59598;48.112;16.280;2022-07-23T04:41:39;25.20;99.90
54788;DHT22;59598;48.112;16.280;2022-07-23T04:44:10;25.30;99.90
54788;DHT22;59598;48.112;16.280;2022-07-23T04:46:44;25.40;99.90
54788;DHT22;59598;48.112;16.280;2022-07-23T04:49:15;25.60;99.90
54788;DHT22;59598;48.112;16.280;2022-07-23T04:51:50;25.80;99.90
54788;DHT22;59598;48.112;16.280;2022-07-23T04:54:21;25.80;99.90
54788;DHT22;59598;48.112;16.280;2022-07-23T04:56:52;25.80;99.90
54788;DHT22;59598;48.112;16.280;2022-07-23T04:59:29;25.80;99.90
54788;DHT22;59598;48.112;16.280;2022-07-23T05:02:06;25.80;99.90
54788;DHT22;59598;48.112;16.280;2022-07-23T05:04:42;25.80;99.90
54788;DHT22;59598;48.112;16.280;2022-07-23T05:07:16;25.70;99.90
54788;DHT22;59598;48.112;16.280;2022-07-23T05:09:50;25.80;99.90
54788;DHT22;59598;48.112;16.280;2022-07-23T05:12:23;25.80;99.90
54788;DHT22;59598;48.112;16.280;2022-07-23T05:14:55;26.10;99.90
54788;DHT22;59598;48.112;16.280;2022-07-23T05:17:28;26.60;99.90
54788;DHT22;59598;48.112;16.280;2022-07-23T05:20:00;27.10;99.90
54788;DHT22;59598;48.112;16.280;2022-07-23T05:22:34;27.50;99.90
54788;DHT22;59598;48.112;16.280;2022-07-23T05:25:06;27.70;99.90
54788;DHT22;59598;48.112;16.280;2022-07-23T05:27:40;27.70;99.90
54788;DHT22;59598;48.112;16.280;2022-07-23T05:30:14;27.90;99.90
54788;DHT22;59598;48.112;16.280;2022-07-23T05:32:45;28.10;99.90
54788;DHT22;59598;48.112;16.280;2022-07-23T05:35:19;28.40;99.90
54788;DHT22;59598;48.112;16.280;2022-07-23T05:37:51;28.40;99.90
54788;DHT22;59598;48.112;16.280;2022-07-23T05:40:26;28.40;99.90
54788;DHT22;59598;48.112;16.280;2022-07-23T05:42:59;28.40;99.90
54788;DHT22;59598;48.112;16.280;2022-07-23T05:45:33;28.50;99.90
54788;DHT22;59598;48.112;16.280;2022-07-23T05:48:09;28.50;99.90
54788;DHT22;59598;48.112;16.280;2022-07-23T05:50:43;28.70;99.90
54788;DHT22;59598;48.112;16.280;2022-07-23T05:53:18;28.80;99.90
54788;DHT22;59598;48.112;16.280;2022-07-23T05:55:50;28.70;99.90
54788;DHT22;59598;48.112;16.280;2022-07-23T05:58:21;28.70;99.90
54788;DHT22;59598;48.112;16.280;2022-07-23T06:00:52;28.80;99.90
54788;DHT22;59598;48.112;16.280;2022-07-23T06:03:26;28.80;99.90
54788;DHT22;59598;48.112;16.280;2022-07-23T06:05:57;28.70;99.90
54788;DHT22;59598;48.112;16.280;2022-07-23T06:08:36;28.80;99.90
54788;DHT22;59598;48.112;16.280;2022-07-23T06:11:08;28.90;99.90
54788;DHT22;59598;48.112;16.280;2022-07-23T06:13:39;28.80;99.90
54788;DHT22;59598;48.112;16.280;2022-07-23T06:16:10;28.80;99.90
54788;DHT22;59598;48.112;16.280;2022-07-23T06:18:44;28.70;99.90
54788;DHT22;59598;48.112;16.280;2022-07-23T06:21:15;28.50;99.90
54788;DHT22;59598;48.112;16.280;2022-07-23T06:23:46;28.50;99.90
54788;DHT22;59598;48.112;16.280;2022-07-23T06:26:18;28.60;99.90
54788;DHT22;59598;48.112;16.280;2022-07-23T06:28:49;28.40;99.90
54788;DHT22;59598;48.112;16.280;2022-07-23T06:31:20;28.50;99.90
54788;DHT22;59598;48.112;16.280;2022-07-23T06:33:51;28.50;99.90
54788;DHT22;59598;48.112;16.280;2022-07-23T06:36:30;28.40;99.90
54788;DHT22;59598;48.112;16.280;2022-07-23T06:39:01;28.50;99.90
54788;DHT22;59598;48.112;16.280;2022-07-23T06:41:32;28.70;99.90
54788;DHT22;59598;48.112;16.280;2022-07-23T06:44:04;28.80;99.90
54788;DHT22;59598;48.112;16.280;2022-07-23T06:46:39;28.80;99.90
54788;DHT22;59598;48.112;16.280;2022-07-23T06:49:12;28.70;99.90
54788;DHT22;59598;48.112;16.280;2022-07-23T06:51:43;28.90;99.90
54788;DHT22;59598;48.112;16.280;2022-07-23T06:54:17;29.10;99.90
54788;DHT22;59598;48.112;16.280;2022-07-23T06:56:49;29.10;99.90
54788;DHT22;59598;48.112;16.280;2022-07-23T06:59:22;29.30;99.90
54788;DHT22;59598;48.112;16.280;2022-07-23T07:01:55;29.40;99.90
54788;DHT22;59598;48.112;16.280;2022-07-23T07:04:29;29.40;99.90
54788;DHT22;59598;48.112;16.280;2022-07-23T07:07:03;29.40;99.90
54788;DHT22;59598;48.112;16.280;2022-07-23T07:09:34;29.00;99.90
54788;DHT22;59598;48.112;16.280;2022-07-23T07:12:05;28.80;99.90
54788;DHT22;59598;48.112;16.280;2022-07-23T07:14:39;28.80;99.90
54788;DHT22;59598;48.112;16.280;2022-07-23T07:17:12;28.70;99.90
54788;DHT22;59598;48.112;16.280;2022-07-23T07:19:43;28.90;99.90
54788;DHT22;59598;48.112;16.280;2022-07-23T07:22:20;29.40;99.90
54788;DHT22;59598;48.112;16.280;2022-07-23T07:24:59;29.50;99.90
54788;DHT22;59598;48.112;16.280;2022-07-23T07:27:30;29.60;99.90
54788;DHT22;59598;48.112;16.280;2022-07-23T07:30:04;29.90;99.90
54788;DHT22;59598;48.112;16.280;2022-07-23T07:32:36;29.80;99.90
54788;DHT22;59598;48.112;16.280;2022-07-23T07:35:13;29.90;99.90
54788;DHT22;59598;48.112;16.280;2022-07-23T07:37:44;30.00;99.90
54788;DHT22;59598;48.112;16.280;2022-07-23T07:40:19;29.90;99.90
54788;DHT22;59598;48.112;16.280;2022-07-23T07:42:54;29.80;99.90
54788;DHT22;59598;48.112;16.280;2022-07-23T07:45:29;29.80;99.90
54788;DHT22;59598;48.112;16.280;2022-07-23T07:48:01;29.70;99.90
54788;DHT22;59598;48.112;16.280;2022-07-23T07:50:32;29.90;99.90
54788;DHT22;59598;48.112;16.280;2022-07-23T07:53:04;30.10;99.90
54788;DHT22;59598;48.112;16.280;2022-07-23T07:55:35;30.00;99.90
54788;DHT22;59598;48.112;16.280;2022-07-23T07:58:06;30.10;99.90
54788;DHT22;59598;48.112;16.280;2022-07-23T08:00:37;30.00;99.90
54788;DHT22;59598;48.112;16.280;2022-07-23T08:03:11;30.00;99.90
54788;DHT22;59598;48.112;16.280;2022-07-23T08:05:44;30.10;99.90
54788;DHT22;59598;48.112;16.280;2022-07-23T08:08:16;30.40;99.90
54788;DHT22;59598;48.112;16.280;2022-07-23T08:10:50;30.60;99.90
54788;DHT22;59598;48.112;16.280;2022-07-23T08:13:21;30.30;99.90
54788;DHT22;59598;48.112;16.280;2022-07-23T08:15:53;30.20;99.90
54788;DHT22;59598;48.112;16.280;2022-07-23T08:18:27;30.40;99.90
54788;DHT22;59598;48.112;16.280;2022-07-23T08:21:00;30.60;99.90
54788;DHT22;59598;48.112;16.280;2022-07-23T08:23:31;31.20;99.90
54788;DHT22;59598;48.112;16.280;2022-07-23T08:26:03;31.60;99.90
54788;DHT22;59598;48.112;16.280;2022-07-23T08:28:34;31.70;99.90
54788;DHT22;59598;48.112;16.280;2022-07-23T08:31:07;31.90;99.90
54788;DHT22;59598;48.112;16.280;2022-07-23T08:33:38;32.10;99.90
54788;DHT22;59598;48.112;16.280;2022-07-23T08:36:09;31.50;99.90
54788;DHT22;59598;48.112;16.280;2022-07-23T08:38:40;32.10;99.90
54788;DHT22;59598;48.112;16.280;2022-07-23T08:41:14;32.20;99.90
54788;DHT22;59598;48.112;16.280;2022-07-23T08:43:48;32.50;99.90
54788;DHT22;59598;48.112;16.280;2022-07-23T08:46:19;32.30;99.90
54788;DHT22;59598;48.112;16.280;2022-07-23T08:48:54;31.80;99.90
54788;DHT22;59598;48.112;16.280;2022-07-23T08:51:26;32.00;99.90
54788;DHT22;59598;48.112;16.280;2022-07-23T08:53:58;32.00;99.90
54788;DHT22;59598;48.112;16.280;2022-07-23T08:56:32;32.50;99.90
54788;DHT22;59598;48.112;16.280;2022-07-23T08:59:06;32.50;99.90
54788;DHT22;59598;48.112;16.280;2022-07-23T09:01:37;32.90;99.90
54788;DHT22;59598;48.112;16.280;2022-07-23T09:04:11;32.60;99.90
54788;DHT22;59598;48.112;16.280;2022-07-23T09:06:42;32.60;99.90
54788;DHT22;59598;48.112;16.280;2022-07-23T09:09:19;32.10;99.90
54788;DHT22;59598;48.112;16.280;2022-07-23T09:12:03;32.20;99.90
54788;DHT22;59598;48.112;16.280;2022-07-23T09:14:48;32.20;99.90
54788;DHT22;59598;48.112;16.280;2022-07-23T09:17:19;32.10;99.90
54788;DHT22;59598;48.112;16.280;2022-07-23T09:19:54;32.30;99.90
54788;DHT22;59598;48.112;16.280;2022-07-23T09:22:38;32.40;99.90
54788;DHT22;59598;48.112;16.280;2022-07-23T09:25:15;32.60;99.90
54788;DHT22;59598;48.112;16.280;2022-07-23T09:28:01;32.40;99.90
54788;DHT22;59598;48.112;16.280;2022-07-23T09:30:41;32.60;99.90
54788;DHT22;59598;48.112;16.280;2022-07-23T09:33:20;32.50;99.90
54788;DHT22;59598;48.112;16.280;2022-07-23T09:35:55;32.40;99.90
54788;DHT22;59598;48.112;16.280;2022-07-23T09:38:29;32.30;99.90
54788;DHT22;59598;48.112;16.280;2022-07-23T09:41:11;32.70;99.90
54788;DHT22;59598;48.112;16.280;2022-07-23T09:43:43;32.90;99.90
54788;DHT22;59598;48.112;16.280;2022-07-23T09:48:56;33.30;99.90
54788;DHT22;59598;48.112;16.280;2022-07-23T09:51:30;33.80;99.90
54788;DHT22;59598;48.112;16.280;2022-07-23T09:54:25;34.50;99.90
54788;DHT22;59598;48.112;16.280;2022-07-23T09:57:06;33.60;99.90
54788;DHT22;59598;48.112;16.280;2022-07-23T09:59:40;33.50;99.90
54788;DHT22;59598;48.112;16.280;2022-07-23T10:02:14;33.60;99.90
54788;DHT22;59598;48.112;16.280;2022-07-23T10:04:46;33.30;99.90
54788;DHT22;59598;48.112;16.280;2022-07-23T10:07:22;33.60;99.90
54788;DHT22;59598;48.112;16.280;2022-07-23T10:09:54;33.50;99.90
54788;DHT22;59598;48.112;16.280;2022-07-23T10:12:26;34.00;99.90
54788;DHT22;59598;48.112;16.280;2022-07-23T10:15:16;34.40;99.90
54788;DHT22;59598;48.112;16.280;2022-07-23T10:17:52;34.60;99.90
54788;DHT22;59598;48.112;16.280;2022-07-23T10:20:29;35.00;99.90
54788;DHT22;59598;48.112;16.280;2022-07-23T10:23:09;34.80;99.90
54788;DHT22;59598;48.112;16.280;2022-07-23T10:25:49;35.00;99.90
54788;DHT22;59598;48.112;16.280;2022-07-23T10:31:58;34.60;99.90
54788;DHT22;59598;48.112;16.280;2022-07-23T10:38:13;33.90;99.90
54788;DHT22;59598;48.112;16.280;2022-07-23T10:40:59;33.30;99.90
54788;DHT22;59598;48.112;16.280;2022-07-23T10:43:33;32.80;99.90
54788;DHT22;59598;48.112;16.280;2022-07-23T10:46:24;32.90;99.90
54788;DHT22;59598;48.112;16.280;2022-07-23T10:49:32;33.50;99.90
54788;DHT22;59598;48.112;16.280;2022-07-23T10:57:47;34.70;99.90
54788;DHT22;59598;48.112;16.280;2022-07-23T11:00:24;34.20;99.90
54788;DHT22;59598;48.112;16.280;2022-07-23T11:03:05;33.40;99.90
54788;DHT22;59598;48.112;16.280;2022-07-23T11:05:46;33.20;99.90
54788;DHT22;59598;48.112;16.280;2022-07-23T11:08:20;33.10;99.90
54788;DHT22;59598;48.112;16.280;2022-07-23T11:11:07;33.50;99.90
54788;DHT22;59598;48.112;16.280;2022-07-23T11:13:45;33.70;99.90
54788;DHT22;59598;48.112;16.280;2022-07-23T11:16:21;34.00;99.90
54788;DHT22;59598;48.112;16.280;2022-07-23T11:18:56;33.50;99.90
54788;DHT22;59598;48.112;16.280;2022-07-23T11:24:12;34.00;99.90
54788;DHT22;59598;48.112;16.280;2022-07-23T11:32:00;34.00;99.90
54788;DHT22;59598;48.112;16.280;2022-07-23T11:37:12;33.90;99.90
54788;DHT22;59598;48.112;16.280;2022-07-23T11:39:49;33.60;99.90
54788;DHT22;59598;48.112;16.280;2022-07-23T11:42:24;33.70;99.90
54788;DHT22;59598;48.112;16.280;2022-07-23T11:45:01;33.80;99.90
54788;DHT22;59598;48.112;16.280;2022-07-23T11:47:32;34.00;99.90
54788;DHT22;59598;48.112;16.280;2022-07-23T11:50:05;34.20;99.90
54788;DHT22;59598;48.112;16.280;2022-07-23T11:52:39;34.00;99.90
54788;DHT22;59598;48.112;16.280;2022-07-23T11:55:12;33.60;99.90
54788;DHT22;59598;48.112;16.280;2022-07-23T11:57:46;33.40;99.90
54788;DHT22;59598;48.112;16.280;2022-07-23T12:00:27;33.30;99.90
54788;DHT22;59598;48.112;16.280;2022-07-23T12:03:03;33.10;99.90
54788;DHT22;59598;48.112;16.280;2022-07-23T12:05:37;32.90;99.90
54788;DHT22;59598;48.112;16.280;2022-07-23T12:08:14;32.60;99.90
54788;DHT22;59598;48.112;16.280;2022-07-23T12:10:45;32.60;99.90
54788;DHT22;59598;48.112;16.280;2022-07-23T12:13:20;32.50;99.90
54788;DHT22;59598;48.112;16.280;2022-07-23T12:15:53;32.30;99.90
54788;DHT22;59598;48.112;16.280;2022-07-23T12:18:29;32.30;99.90
54788;DHT22;59598;48.112;16.280;2022-07-23T12:21:09;32.00;99.90
54788;DHT22;59598;48.112;16.280;2022-07-23T12:23:41;31.70;99.90
54788;DHT22;59598;48.112;16.280;2022-07-23T12:26:16;31.30;99.90
54788;DHT22;59598;48.112;16.280;2022-07-23T12:28:52;31.30;99.90
54788;DHT22;59598;48.112;16.280;2022-07-23T12:31:29;31.20;99.90
54788;DHT22;59598;48.112;16.280;2022-07-23T12:34:14;31.00;99.90
54788;DHT22;59598;48.112;16.280;2022-07-23T12:36:50;30.80;99.90
54788;DHT22;59598;48.112;16.280;2022-07-23T12:39:31;30.70;99.90
54788;DHT22;59598;48.112;16.280;2022-07-23T12:42:10;30.50;99.90
54788;DHT22;59598;48.112;16.280;2022-07-23T12:45:09;30.50;99.90
54788;DHT22;59598;48.112;16.280;2022-07-23T12:50:41;30.90;99.90
54788;DHT22;59598;48.112;16.280;2022-07-23T12:53:18;31.20;99.90
54788;DHT22;59598;48.112;16.280;2022-07-23T12:55:56;31.20;99.90
54788;DHT22;59598;48.112;16.280;2022-07-23T12:58:40;31.40;99.90
54788;DHT22;59598;48.112;16.280;2022-07-23T13:07:04;32.20;99.90
54788;DHT22;59598;48.112;16.280;2022-07-23T13:09:33;32.80;99.90
54788;DHT22;59598;48.112;16.280;2022-07-23T13:12:05;34.50;99.90
54788;DHT22;59598;48.112;16.280;2022-07-23T13:14:38;34.70;99.90
54788;DHT22;59598;48.112;16.280;2022-07-23T13:17:15;34.40;99.90
54788;DHT22;59598;48.112;16.280;2022-07-23T13:19:51;35.00;99.90
54788;DHT22;59598;48.112;16.280;2022-07-23T13:22:23;33.80;99.90
54788;DHT22;59598;48.112;16.280;2022-07-23T13:24:54;33.50;99.90
54788;DHT22;59598;48.112;16.280;2022-07-23T13:27:26;33.40;99.90
54788;DHT22;59598;48.112;16.280;2022-07-23T13:29:59;33.10;99.90
54788;DHT22;59598;48.112;16.280;2022-07-23T13:32:34;33.00;99.90
54788;DHT22;59598;48.112;16.280;2022-07-23T13:35:10;32.90;99.90
54788;DHT22;59598;48.112;16.280;2022-07-23T13:37:45;33.90;99.90
54788;DHT22;59598;48.112;16.280;2022-07-23T13:40:16;35.60;99.90
54788;DHT22;59598;48.112;16.280;2022-07-23T13:42:48;35.00;99.90
54788;DHT22;59598;48.112;16.280;2022-07-23T13:45:22;35.70;99.90
54788;DHT22;59598;48.112;16.280;2022-07-23T13:47:53;36.10;99.90
54788;DHT22;59598;48.112;16.280;2022-07-23T13:50:27;36.90;99.90
54788;DHT22;59598;48.112;16.280;2022-07-23T13:53:03;37.50;99.90
54788;DHT22;59598;48.112;16.280;2022-07-23T13:55:39;36.80;99.90
54788;DHT22;59598;48.112;16.280;2022-07-23T13:58:11;35.30;99.90
54788;DHT22;59598;48.112;16.280;2022-07-23T14:00:47;34.40;99.90
54788;DHT22;59598;48.112;16.280;2022-07-23T14:03:20;34.90;99.90
54788;DHT22;59598;48.112;16.280;2022-07-23T14:05:55;35.60;99.90
54788;DHT22;59598;48.112;16.280;2022-07-23T14:08:31;35.10;99.90
54788;DHT22;59598;48.112;16.280;2022-07-23T14:11:03;35.60;99.90
54788;DHT22;59598;48.112;16.280;2022-07-23T14:13:34;35.00;99.90
54788;DHT22;59598;48.112;16.280;2022-07-23T14:16:10;34.50;99.90
54788;DHT22;59598;48.112;16.280;2022-07-23T14:18:42;33.90;99.90
54788;DHT22;59598;48.112;16.280;2022-07-23T14:21:15;33.50;99.90
54788;DHT22;59598;48.112;16.280;2022-07-23T14:23:47;33.00;99.90
54788;DHT22;59598;48.112;16.280;2022-07-23T14:26:23;33.00;99.90
54788;DHT22;59598;48.112;16.280;2022-07-23T14:28:55;32.30;99.90
54788;DHT22;59598;48.112;16.280;2022-07-23T14:31:29;32.20;99.90
54788;DHT22;59598;48.112;16.280;2022-07-23T14:34:02;33.00;99.90
54788;DHT22;59598;48.112;16.280;2022-07-23T14:36:33;34.30;99.90
54788;DHT22;59598;48.112;16.280;2022-07-23T14:39:07;35.40;99.90
54788;DHT22;59598;48.112;16.280;2022-07-23T14:41:39;36.50;99.90
54788;DHT22;59598;48.112;16.280;2022-07-23T14:44:11;36.60;99.90
54788;DHT22;59598;48.112;16.280;2022-07-23T14:46:42;35.70;99.90
54788;DHT22;59598;48.112;16.280;2022-07-23T14:49:16;35.70;99.90
54788;DHT22;59598;48.112;16.280;2022-07-23T14:51:52;35.10;99.90
54788;DHT22;59598;48.112;16.280;2022-07-23T14:54:27;35.00;99.90
54788;DHT22;59598;48.112;16.280;2022-07-23T14:56:59;35.30;99.90
54788;DHT22;59598;48.112;16.280;2022-07-23T14:59:33;35.50;99.90
54788;DHT22;59598;48.112;16.280;2022-07-23T15:02:07;35.50;99.90
54788;DHT22;59598;48.112;16.280;2022-07-23T15:04:41;34.50;99.90
54788;DHT22;59598;48.112;16.280;2022-07-23T15:07:20;34.00;99.90
54788;DHT22;59598;48.112;16.280;2022-07-23T15:09:54;34.80;99.90
54788;DHT22;59598;48.112;16.280;2022-07-23T15:12:25;34.70;99.90
54788;DHT22;59598;48.112;16.280;2022-07-23T15:14:59;34.70;99.90
54788;DHT22;59598;48.112;16.280;2022-07-23T15:17:30;35.20;99.90
54788;DHT22;59598;48.112;16.280;2022-07-23T15:20:01;35.30;99.90
54788;DHT22;59598;48.112;16.280;2022-07-23T15:22:35;35.00;99.90
54788;DHT22;59598;48.112;16.280;2022-07-23T15:25:14;35.40;99.90
54788;DHT22;59598;48.112;16.280;2022-07-23T15:27:47;35.90;99.90
54788;DHT22;59598;48.112;16.280;2022-07-23T15:30:21;35.50;99.90
54788;DHT22;59598;48.112;16.280;2022-07-23T15:32:54;35.30;99.90
54788;DHT22;59598;48.112;16.280;2022-07-23T15:35:34;34.60;99.90
54788;DHT22;59598;48.112;16.280;2022-07-23T15:38:05;34.30;99.90
54788;DHT22;59598;48.112;16.280;2022-07-23T15:40:38;33.70;99.90
54788;DHT22;59598;48.112;16.280;2022-07-23T15:43:12;33.60;99.90
54788;DHT22;59598;48.112;16.280;2022-07-23T15:45:47;33.80;99.90
54788;DHT22;59598;48.112;16.280;2022-07-23T15:48:19;34.30;99.90
54788;DHT22;59598;48.112;16.280;2022-07-23T15:50:50;35.00;99.90
54788;DHT22;59598;48.112;16.280;2022-07-23T15:53:28;35.80;99.90
54788;DHT22;59598;48.112;16.280;2022-07-23T15:56:02;35.20;99.90
54788;DHT22;59598;48.112;16.280;2022-07-23T15:58:34;35.10;99.90
54788;DHT22;59598;48.112;16.280;2022-07-23T16:01:07;34.90;99.90
54788;DHT22;59598;48.112;16.280;2022-07-23T16:03:39;35.00;99.90
54788;DHT22;59598;48.112;16.280;2022-07-23T16:06:13;34.60;99.90
54788;DHT22;59598;48.112;16.280;2022-07-23T16:08:44;34.60;99.90
54788;DHT22;59598;48.112;16.280;2022-07-23T16:11:21;34.80;99.90
54788;DHT22;59598;48.112;16.280;2022-07-23T16:13:53;34.80;99.90
54788;DHT22;59598;48.112;16.280;2022-07-23T16:16:25;34.20;99.90
54788;DHT22;59598;48.112;16.280;2022-07-23T16:18:57;34.60;99.90
54788;DHT22;59598;48.112;16.280;2022-07-23T16:21:28;34.00;99.90
54788;DHT22;59598;48.112;16.280;2022-07-23T16:24:03;33.70;99.90
54788;DHT22;59598;48.112;16.280;2022-07-23T16:26:37;33.10;99.90
54788;DHT22;59598;48.112;16.280;2022-07-23T16:29:13;33.00;99.90
54788;DHT22;59598;48.112;16.280;2022-07-23T16:31:49;32.80;99.90
54788;DHT22;59598;48.112;16.280;2022-07-23T16:34:26;32.40;99.90